createdAt,value
2022-12-14T10:28:46.734Z,29.90
2022-12-14T10:29:28.916Z,15.90
2022-12-14T10:30:29.650Z,20.10
2022-12-14T10:48:29.099Z,26.40
2022-12-14T10:49:29.433Z,14.10
2022-12-14T10:50:30.139Z,17.20
2022-12-14T10:51:30.856Z,20.80
2022-12-14T10:52:31.561Z,19.30
2022-12-14T10:53:37.125Z,14.70
2022-12-14T10:54:33.898Z,23.30
2022-12-14T10:55:33.600Z,15.80
2022-12-14T10:56:34.366Z,20.50
2022-12-14T10:57:35.130Z,21.60
2022-12-14T10:58:35.995Z,17.50
2022-12-14T10:59:43.710Z,28.60
2022-12-14T11:00:38.541Z,25.80
2022-12-14T11:01:38.323Z,16.30
2022-12-14T11:02:39.192Z,21.50
2022-12-14T11:03:40.109Z,18.00
2022-12-14T11:04:40.294Z,21.60
2022-12-14T11:05:41.038Z,18.20
2022-12-14T11:06:41.770Z,16.00
2022-12-14T11:07:42.462Z,21.20
2022-12-14T11:08:43.497Z,18.60
2022-12-14T11:09:43.781Z,15.00
2022-12-14T11:10:44.484Z,21.00
2022-12-14T11:11:45.238Z,17.30
2022-12-14T11:12:45.903Z,13.50
2022-12-14T11:13:46.639Z,14.30
2022-12-14T11:14:47.334Z,16.40
2022-12-14T11:15:48.041Z,9.60
2022-12-14T11:16:48.876Z,16.30
2022-12-14T11:17:49.774Z,12.70
2022-12-14T11:18:51.051Z,13.10
2022-12-14T11:19:51.222Z,16.50
2022-12-14T11:20:51.931Z,10.80
2022-12-14T11:21:52.638Z,10.40
2022-12-14T11:22:53.350Z,12.90
2022-12-14T11:23:54.514Z,11.80
2022-12-14T11:24:54.715Z,12.10
2022-12-14T11:25:55.619Z,14.80
2022-12-14T11:26:56.318Z,11.30
2022-12-14T11:27:57.030Z,10.50
2022-12-14T11:28:58.000Z,12.30
2022-12-14T11:29:58.704Z,15.60
2022-12-14T11:30:59.542Z,10.10
2022-12-14T11:32:00.240Z,14.60
2022-12-14T11:33:00.949Z,13.20
2022-12-14T11:34:01.792Z,10.80
2022-12-14T11:35:02.419Z,15.10
2022-12-14T11:36:03.135Z,17.40
2022-12-14T11:37:03.841Z,11.90
2022-12-14T11:38:04.550Z,21.00
2022-12-14T11:39:05.502Z,19.50
2022-12-14T11:40:06.213Z,16.10
2022-12-14T11:41:11.419Z,15.30
2022-12-14T11:42:08.517Z,19.70
2022-12-14T11:43:08.226Z,18.20
2022-12-14T11:44:09.011Z,12.00
2022-12-14T11:45:09.729Z,15.00
2022-12-14T11:46:10.539Z,17.90
2022-12-14T11:47:11.198Z,11.30
2022-12-14T11:48:11.894Z,14.80
2022-12-14T11:49:13.038Z,13.70
2022-12-14T11:50:13.213Z,13.30
2022-12-14T11:51:13.924Z,13.60
2022-12-14T11:52:14.643Z,9.90
2022-12-14T11:53:15.346Z,12.20
2022-12-14T11:54:16.495Z,12.60
2022-12-14T11:55:20.293Z,10.50
2022-12-14T11:56:18.328Z,10.30
2022-12-14T11:57:21.064Z,11.50
2022-12-14T11:58:18.777Z,10.20
2022-12-14T11:59:19.497Z,10.30
2022-12-14T12:00:21.011Z,21.80
2022-12-14T12:01:22.363Z,11.50
2022-12-14T12:02:22.147Z,10.80
2022-12-14T12:03:28.480Z,12.60
2022-12-14T12:04:23.810Z,10.80
2022-12-14T12:05:24.437Z,14.00
2022-12-14T12:06:25.150Z,11.30
2022-12-14T12:07:25.855Z,11.70
2022-12-14T12:08:27.151Z,12.90
2022-12-14T12:09:27.088Z,13.80
2022-12-14T12:10:27.797Z,13.90
2022-12-14T12:11:29.497Z,10.80
2022-12-14T12:12:29.202Z,14.30
2022-12-14T12:13:29.927Z,13.40
2022-12-14T12:14:30.997Z,17.80
2022-12-14T12:15:31.283Z,19.60
2022-12-14T12:16:32.000Z,21.20
2022-12-14T12:17:32.669Z,19.30
2022-12-14T12:18:34.019Z,26.20
2022-12-14T12:19:34.379Z,21.40
2022-12-14T12:20:35.027Z,26.50
2022-12-14T12:21:35.732Z,17.50
2022-12-14T12:22:36.439Z,16.90
2022-12-14T12:23:37.150Z,17.80
2022-12-14T12:24:55.159Z,14.80
2022-12-14T12:25:39.674Z,26.10
2022-12-14T12:26:39.349Z,23.50
2022-12-14T12:27:40.041Z,21.60
2022-12-14T12:28:40.762Z,20.50
2022-12-14T12:29:41.480Z,24.20
2022-12-14T12:30:42.214Z,29.70
2022-12-14T12:31:42.979Z,16.70
2022-12-14T12:32:43.681Z,26.90
2022-12-14T12:33:45.287Z,24.40
2022-12-14T12:34:45.525Z,24.00
2022-12-14T12:35:45.751Z,16.30
2022-12-14T12:37:09.652Z,23.50
2022-12-14T12:37:48.119Z,25.10
2022-12-14T12:38:49.817Z,17.90
2022-12-14T12:39:49.001Z,20.40
2022-12-14T12:40:49.234Z,18.10
2022-12-14T12:41:49.926Z,22.20
2022-12-14T12:42:50.628Z,18.30
2022-12-14T12:43:51.343Z,15.00
2022-12-14T12:44:52.064Z,14.50
2022-12-14T12:45:52.772Z,18.20
2022-12-14T12:47:22.887Z,15.50
2022-12-14T12:47:55.172Z,19.90
2022-12-14T12:48:54.843Z,16.90
2022-12-14T12:49:56.029Z,23.90
2022-12-14T12:50:56.219Z,24.00
2022-12-14T12:51:56.946Z,14.30
2022-12-14T12:53:02.666Z,12.80
2022-12-14T12:53:59.286Z,21.70
2022-12-14T12:54:59.500Z,25.40
2022-12-14T12:55:59.714Z,11.50
2022-12-14T12:57:00.420Z,18.00
2022-12-14T12:58:01.134Z,15.20
2022-12-14T12:59:01.841Z,11.00
2022-12-14T13:00:03.002Z,19.80
2022-12-14T13:01:03.208Z,11.90
2022-12-14T13:02:04.051Z,19.80
2022-12-14T13:03:04.941Z,22.10
2022-12-14T13:04:05.658Z,17.20
2022-12-14T13:05:22.325Z,11.00
2022-12-14T13:06:08.104Z,12.50
2022-12-14T13:07:07.856Z,17.60
2022-12-14T13:08:08.568Z,12.60
2022-12-14T13:09:09.282Z,11.50
2022-12-14T13:10:10.536Z,23.20
2022-12-14T13:11:26.175Z,19.80
2022-12-14T13:12:12.316Z,16.50
2022-12-14T13:13:12.022Z,15.30
2022-12-14T13:14:12.732Z,18.80
2022-12-14T13:15:13.505Z,10.40
2022-12-14T13:16:14.407Z,16.60
2022-12-14T13:17:15.129Z,10.40
2022-12-14T13:18:40.799Z,10.80
2022-12-14T13:19:49.890Z,11.50
2022-12-14T13:20:18.071Z,16.20
2022-12-14T13:21:17.736Z,12.50
2022-12-14T13:22:18.444Z,15.10
2022-12-14T13:23:44.191Z,11.10
2022-12-14T13:24:20.761Z,15.60
2022-12-14T13:25:20.502Z,20.50
2022-12-14T13:26:55.648Z,13.60
2022-12-14T13:27:22.833Z,10.70
2022-12-14T13:28:22.540Z,16.00
2022-12-14T13:29:23.258Z,11.70
2022-12-14T13:30:24.004Z,10.50
2022-12-14T13:31:24.767Z,10.50
2022-12-14T13:32:25.420Z,11.00
2022-12-14T13:33:26.130Z,10.40
2022-12-14T13:34:26.842Z,10.60
2022-12-14T13:35:28.020Z,10.40
2022-12-14T13:36:28.219Z,10.80
2022-12-14T13:37:28.924Z,11.30
2022-12-14T13:38:33.508Z,10.30
2022-12-14T13:39:30.300Z,11.90
2022-12-14T13:40:31.013Z,13.50
2022-12-14T13:41:31.727Z,10.40
2022-12-14T13:42:32.453Z,12.60
2022-12-14T13:43:33.150Z,10.70
2022-12-14T13:44:40.203Z,10.70
2022-12-14T13:45:35.502Z,12.40
2022-12-14T13:46:35.268Z,14.60
2022-12-14T13:47:35.965Z,11.40
2022-12-14T13:48:36.639Z,10.90
2022-12-14T13:49:37.344Z,11.10
2022-12-14T13:50:42.429Z,10.40
2022-12-14T13:51:39.615Z,14.10
2022-12-14T13:52:39.329Z,10.50
2022-12-14T13:53:40.040Z,11.40
2022-12-14T13:54:40.729Z,11.30
2022-12-14T13:55:41.504Z,11.10
2022-12-14T13:56:42.228Z,12.20
2022-12-14T13:57:42.939Z,12.60
2022-12-14T13:58:43.668Z,14.40
2022-12-14T13:59:44.380Z,11.80
2022-12-14T14:00:45.507Z,12.90
2022-12-14T14:01:45.882Z,14.00
2022-12-14T14:02:46.782Z,11.30
2022-12-14T14:03:47.714Z,13.70
2022-12-14T14:04:48.499Z,11.40
2022-12-14T14:05:49.256Z,16.60
2022-12-14T14:06:49.925Z,10.80
2022-12-14T14:07:50.634Z,13.80
2022-12-14T14:08:51.730Z,13.80
2022-12-14T14:09:51.905Z,11.30
2022-12-14T14:11:02.501Z,12.70
2022-12-14T14:11:54.223Z,12.70
2022-12-14T14:12:53.933Z,10.60
2022-12-14T14:13:54.642Z,11.40
2022-12-14T14:14:55.367Z,13.50
2022-12-14T14:16:26.709Z,15.00
2022-12-14T14:16:57.788Z,12.00
2022-12-14T14:17:57.463Z,17.20
2022-12-14T14:18:58.167Z,13.20
2022-12-14T14:19:58.874Z,16.00
2022-12-14T14:20:59.610Z,13.30
2022-12-14T14:22:22.191Z,12.80
2022-12-14T14:23:01.904Z,11.20
2022-12-14T14:24:01.636Z,13.00
2022-12-14T14:25:02.507Z,11.10
2022-12-14T14:26:03.232Z,12.00
2022-12-14T14:27:03.900Z,11.90
2022-12-14T14:28:04.605Z,17.30
2022-12-14T14:29:05.316Z,14.00
2022-12-14T14:30:06.033Z,14.40
2022-12-14T14:31:07.058Z,14.10
2022-12-14T14:32:07.714Z,15.30
2022-12-14T14:33:43.650Z,16.70
2022-12-14T14:34:10.023Z,15.10
2022-12-14T14:35:09.732Z,19.30
2022-12-14T14:36:10.521Z,10.60
2022-12-14T14:37:11.180Z,11.60
2022-12-14T14:38:11.890Z,15.40
2022-12-14T14:39:38.739Z,17.30
2022-12-14T14:40:23.453Z,11.90
2022-12-14T14:41:17.045Z,17.90
2022-12-14T14:42:14.544Z,16.40
2022-12-14T14:43:15.254Z,16.00
2022-12-14T14:44:15.967Z,14.40
2022-12-14T14:45:16.675Z,18.30
2022-12-14T14:46:22.550Z,21.60
2022-12-14T14:47:19.024Z,13.70
2022-12-14T14:48:18.697Z,13.00
2022-12-14T14:49:19.404Z,12.10
2022-12-14T14:50:20.116Z,20.10
2022-12-14T14:51:21.022Z,12.20
2022-12-14T14:52:21.698Z,15.70
2022-12-14T14:53:22.403Z,11.50
2022-12-14T14:55:11.055Z,16.60
2022-12-14T14:55:51.477Z,11.30
2022-12-14T14:56:25.511Z,11.40
2022-12-14T14:57:25.210Z,14.60
2022-12-14T14:58:25.925Z,22.00
2022-12-14T14:59:26.655Z,12.40
2022-12-14T15:00:27.342Z,25.70
2022-12-14T15:01:28.200Z,14.90
2022-12-14T15:02:29.003Z,12.50
2022-12-14T15:03:29.776Z,17.30
2022-12-14T15:04:30.536Z,22.00
2022-12-14T15:05:46.491Z,20.40
2022-12-14T15:06:33.039Z,17.50
2022-12-14T15:07:32.698Z,13.30
2022-12-14T15:08:33.632Z,22.20
2022-12-14T15:09:34.003Z,19.50
2022-12-14T15:10:34.660Z,15.40
2022-12-14T15:11:35.375Z,17.40
2022-12-14T15:12:36.080Z,20.70
2022-12-14T15:13:36.787Z,21.80
2022-12-14T15:14:37.561Z,20.20
2022-12-14T15:15:38.468Z,22.40
2022-12-14T15:16:39.576Z,21.00
2022-12-14T15:17:39.744Z,23.10
2022-12-14T15:18:40.453Z,19.90
2022-12-14T15:19:41.164Z,17.00
2022-12-14T15:20:41.868Z,19.90
2022-12-14T15:21:43.021Z,26.30
2022-12-14T15:22:43.193Z,22.90
2022-12-14T15:23:43.901Z,20.40
2022-12-14T15:24:45.526Z,21.50
2022-12-14T15:25:45.221Z,32.30
2022-12-14T15:26:45.933Z,22.00
2022-12-14T15:27:46.638Z,26.40
2022-12-14T15:28:47.346Z,27.10
2022-12-14T15:29:49.402Z,25.40
2022-12-14T15:30:48.795Z,29.60
2022-12-14T15:31:53.443Z,20.10
2022-12-14T15:32:51.109Z,27.10
2022-12-14T15:33:50.816Z,25.90
2022-12-14T15:34:51.517Z,29.00
2022-12-14T15:35:52.222Z,27.00
2022-12-14T15:36:53.032Z,26.60
2022-12-14T15:37:59.711Z,29.00
2022-12-14T15:38:55.313Z,25.40
2022-12-14T15:39:55.041Z,29.90
2022-12-14T15:40:55.725Z,32.70
2022-12-14T15:41:56.440Z,32.90
2022-12-14T15:42:57.164Z,29.60
2022-12-14T15:44:00.081Z,24.50
2022-12-14T15:44:58.601Z,26.40
2022-12-14T15:46:03.055Z,26.60
2022-12-14T15:47:00.089Z,22.60
2022-12-14T15:48:00.784Z,29.30
2022-12-14T15:49:01.493Z,28.00
2022-12-14T15:50:06.983Z,31.60
2022-12-14T15:51:03.813Z,34.30
2022-12-14T15:52:04.025Z,32.90
2022-12-14T15:53:04.180Z,33.50
2022-12-14T15:54:04.887Z,36.50
2022-12-14T15:55:05.615Z,37.20
2022-12-14T15:56:11.697Z,38.20
2022-12-14T15:57:07.911Z,33.40
2022-12-14T15:58:07.646Z,35.30
2022-12-14T15:59:08.323Z,37.30
2022-12-14T16:00:09.031Z,38.80
2022-12-14T16:01:10.031Z,31.50
2022-12-14T16:02:10.458Z,40.80
2022-12-14T16:03:11.127Z,38.70
2022-12-14T16:04:11.925Z,43.00
2022-12-14T16:05:12.595Z,38.20
2022-12-14T16:06:13.303Z,33.90
2022-12-14T16:07:14.539Z,44.00
2022-12-14T16:08:14.749Z,37.00
2022-12-14T16:09:15.462Z,32.10
2022-12-14T16:10:16.191Z,42.20
2022-12-14T16:11:16.876Z,38.40
2022-12-14T16:12:17.595Z,36.60
2022-12-14T16:13:18.303Z,42.10
2022-12-14T16:14:19.010Z,34.50
2022-12-14T16:15:19.716Z,45.40
2022-12-14T16:16:20.465Z,40.70
2022-12-14T16:17:21.200Z,51.70
2022-12-14T16:18:21.895Z,44.00
2022-12-14T16:19:28.262Z,54.90
2022-12-14T16:20:24.201Z,43.30
2022-12-14T16:21:23.904Z,38.50
2022-12-14T16:22:24.639Z,37.10
2022-12-14T16:23:25.316Z,36.80
2022-12-14T16:24:26.023Z,44.70
2022-12-14T16:25:26.753Z,45.50
2022-12-14T16:26:27.437Z,42.90
2022-12-14T16:27:28.152Z,38.40
2022-12-14T16:28:28.864Z,37.00
2022-12-14T16:29:29.566Z,45.80
2022-12-14T16:30:30.272Z,33.20
2022-12-14T16:31:31.040Z,39.40
2022-12-14T16:32:31.698Z,45.30
2022-12-14T16:33:33.146Z,43.40
2022-12-14T16:34:33.062Z,40.50
2022-12-14T16:35:33.785Z,37.70
2022-12-14T16:36:34.473Z,42.00
2022-12-14T16:37:35.522Z,39.30
2022-12-14T16:38:35.684Z,44.00
2022-12-14T16:39:36.388Z,27.90
2022-12-14T16:40:37.119Z,35.10
2022-12-14T16:41:37.828Z,43.60
2022-12-14T16:42:39.006Z,31.40
2022-12-14T16:43:39.212Z,43.20
2022-12-14T16:44:39.916Z,43.10
2022-12-14T16:45:40.651Z,47.30
2022-12-14T16:46:41.412Z,34.50
2022-12-14T16:47:42.072Z,46.20
2022-12-14T16:48:42.775Z,37.70
2022-12-14T16:49:43.671Z,39.50
2022-12-14T16:51:05.701Z,46.20
2022-12-14T16:52:06.188Z,40.40
2022-12-14T16:52:46.520Z,39.70
2022-12-14T16:53:46.220Z,51.50
2022-12-14T16:54:46.930Z,54.70
2022-12-14T16:55:47.922Z,47.90
2022-12-14T16:56:48.547Z,52.80
2022-12-14T16:57:49.261Z,46.50
2022-12-14T16:58:49.973Z,44.60
2022-12-14T16:59:50.678Z,51.30
2022-12-14T17:00:51.413Z,54.20
2022-12-14T17:01:52.281Z,42.60
2022-12-14T17:02:53.738Z,42.20
2022-12-14T17:03:54.053Z,50.40
2022-12-14T17:04:54.723Z,49.70
2022-12-14T17:05:55.431Z,49.20
2022-12-14T17:06:56.144Z,46.30
2022-12-14T17:07:57.041Z,52.60
2022-12-14T17:08:57.735Z,54.10
2022-12-14T17:09:58.446Z,42.90
2022-12-14T17:10:59.177Z,47.50
2022-12-14T17:11:59.860Z,56.20
2022-12-14T17:13:00.579Z,44.00
2022-12-14T17:14:01.286Z,40.30
2022-12-14T17:15:02.007Z,46.20
2022-12-14T17:16:02.699Z,30.40
2022-12-14T17:17:03.463Z,43.10
2022-12-14T17:18:04.247Z,33.10
2022-12-14T17:19:04.900Z,28.80
2022-12-14T17:20:09.197Z,40.90
2022-12-14T17:21:07.214Z,41.40
2022-12-14T17:22:06.923Z,41.20
2022-12-14T17:23:07.725Z,30.30
2022-12-14T17:24:08.381Z,32.70
2022-12-14T17:25:09.089Z,31.30
2022-12-14T17:26:09.912Z,39.00
2022-12-14T17:27:10.534Z,41.50
2022-12-14T17:28:11.507Z,39.30
2022-12-14T17:29:12.218Z,40.90
2022-12-14T17:30:12.930Z,43.60
2022-12-14T17:31:13.735Z,37.80
2022-12-14T17:32:14.440Z,42.60
2022-12-14T17:33:15.151Z,45.50
2022-12-14T17:34:15.862Z,41.20
2022-12-14T17:35:16.569Z,32.30
2022-12-14T17:36:17.283Z,33.90
2022-12-14T17:37:17.985Z,33.50
2022-12-14T17:38:19.045Z,46.00
2022-12-14T17:39:19.231Z,33.70
2022-12-14T17:40:19.938Z,30.30
2022-12-14T17:41:20.663Z,43.20
2022-12-14T17:42:21.345Z,39.70
2022-12-14T17:43:22.508Z,39.00
2022-12-14T17:44:22.715Z,37.90
2022-12-14T17:45:23.425Z,39.40
2022-12-14T17:46:24.264Z,37.40
2022-12-14T17:47:24.897Z,41.90
2022-12-14T17:48:25.619Z,43.40
2022-12-14T17:49:26.320Z,41.50
2022-12-14T17:50:27.028Z,33.10
2022-12-14T17:51:27.734Z,31.90
2022-12-14T17:52:28.448Z,35.20
2022-12-14T17:53:30.107Z,32.20
2022-12-14T17:54:30.084Z,40.90
2022-12-14T17:55:30.801Z,36.60
2022-12-14T17:56:31.533Z,45.60
2022-12-14T17:57:32.221Z,32.40
2022-12-14T17:58:32.946Z,43.10
2022-12-14T17:59:33.651Z,39.00
2022-12-14T18:00:34.361Z,34.50
2022-12-14T18:01:35.236Z,35.40
2022-12-14T18:02:36.361Z,39.80
2022-12-14T18:03:36.985Z,30.30
2022-12-14T18:04:37.258Z,35.40
2022-12-14T18:05:42.138Z,37.10
2022-12-14T18:06:39.569Z,42.70
2022-12-14T18:07:39.276Z,40.20
2022-12-14T18:08:40.045Z,37.30
2022-12-14T18:09:40.724Z,36.90
2022-12-14T18:10:41.433Z,42.80
2022-12-14T18:12:13.977Z,31.80
2022-12-14T18:12:43.742Z,40.20
2022-12-14T18:13:43.458Z,34.70
2022-12-14T18:14:44.167Z,41.50
2022-12-14T18:15:44.914Z,40.00
2022-12-14T18:16:46.501Z,34.50
2022-12-14T18:17:46.053Z,34.90
2022-12-14T18:18:46.659Z,43.00
2022-12-14T18:19:47.778Z,37.10
2022-12-14T18:20:49.415Z,42.80
2022-12-14T18:21:48.691Z,42.00
2022-12-14T18:22:50.050Z,40.60
2022-12-14T18:23:50.577Z,36.20
2022-12-14T18:24:51.250Z,35.40
2022-12-14T18:25:51.928Z,40.70
2022-12-14T18:26:52.760Z,37.80
2022-12-14T18:27:53.615Z,48.10
2022-12-14T18:28:54.506Z,34.90
2022-12-14T18:29:55.213Z,47.70
2022-12-14T18:30:56.037Z,36.70
2022-12-14T18:31:56.766Z,43.50
2022-12-14T18:32:57.482Z,45.10
2022-12-14T18:33:58.195Z,40.90
2022-12-14T18:34:58.901Z,32.10
2022-12-14T18:35:59.608Z,45.30
2022-12-14T18:37:00.322Z,37.70
2022-12-14T18:38:01.021Z,48.10
2022-12-14T18:39:01.753Z,48.90
2022-12-14T18:40:02.419Z,66.20
2022-12-14T18:41:03.108Z,61.20
2022-12-14T18:42:03.840Z,55.50
2022-12-14T18:43:04.527Z,59.60
2022-12-14T18:44:05.237Z,65.60
2022-12-14T18:45:05.943Z,56.80
2022-12-14T18:46:06.771Z,53.90
2022-12-14T18:47:33.678Z,56.60
2022-12-14T18:48:09.028Z,53.20
2022-12-14T18:49:09.007Z,54.80
2022-12-14T18:50:09.712Z,48.10
2022-12-14T18:51:10.419Z,51.50
2022-12-14T18:52:11.124Z,60.80
2022-12-14T18:53:11.834Z,55.30
2022-12-14T18:54:12.586Z,53.30
2022-12-14T18:55:13.341Z,48.80
2022-12-14T18:56:14.024Z,44.00
2022-12-14T18:57:14.752Z,42.40
2022-12-14T18:58:15.435Z,50.80
2022-12-14T18:59:16.506Z,50.50
2022-12-14T19:00:16.722Z,46.30
2022-12-14T19:01:17.581Z,52.60
2022-12-14T19:02:18.501Z,54.00
2022-12-14T19:03:19.371Z,51.10
2022-12-14T19:04:20.506Z,47.20
2022-12-14T19:05:24.265Z,44.20
2022-12-14T19:07:22.918Z,47.40
2022-12-14T19:08:22.626Z,39.10
2022-12-14T19:09:23.545Z,40.40
2022-12-14T19:10:24.191Z,44.40
2022-12-14T19:11:24.897Z,36.30
2022-12-14T19:12:25.624Z,44.20
2022-12-14T19:13:26.500Z,36.80
2022-12-14T19:14:27.511Z,35.20
2022-12-14T19:15:27.717Z,31.80
2022-12-14T19:16:28.543Z,33.20
2022-12-14T19:17:29.209Z,33.10
2022-12-14T19:18:30.867Z,39.00
2022-12-14T19:19:38.164Z,37.30
2022-12-14T19:20:32.106Z,39.90
2022-12-14T19:21:31.920Z,32.80
2022-12-14T19:22:32.558Z,34.30
2022-12-14T19:23:33.600Z,41.00
2022-12-14T19:24:34.042Z,38.20
2022-12-14T19:25:34.720Z,37.80
2022-12-14T19:26:35.429Z,39.70
2022-12-14T19:28:19.980Z,38.60
2022-12-14T19:28:37.736Z,39.90
2022-12-14T19:29:37.451Z,37.40
2022-12-14T19:30:38.156Z,39.20
2022-12-14T19:31:38.925Z,37.50
2022-12-14T19:32:39.590Z,45.30
2022-12-14T19:33:40.299Z,45.00
2022-12-14T19:34:41.509Z,39.60
2022-12-14T19:35:41.727Z,37.10
2022-12-14T19:36:42.439Z,43.90
2022-12-14T19:37:43.142Z,36.40
2022-12-14T19:38:43.848Z,39.30
2022-12-14T19:39:44.584Z,39.90
2022-12-14T19:40:45.271Z,42.70
2022-12-14T19:41:45.979Z,40.90
2022-12-14T19:42:46.719Z,35.90
2022-12-14T19:43:47.394Z,36.60
2022-12-14T19:44:49.229Z,41.00
2022-12-14T19:45:49.007Z,41.70
2022-12-14T19:46:49.791Z,39.40
2022-12-14T19:47:50.460Z,44.70
2022-12-14T19:48:51.175Z,38.70
2022-12-14T19:49:52.005Z,48.60
2022-12-14T19:50:52.713Z,47.20
2022-12-14T19:51:53.250Z,38.50
2022-12-14T19:52:54.058Z,46.80
2022-12-14T19:53:54.770Z,36.60
2022-12-14T19:54:55.546Z,48.10
2022-12-14T19:55:56.203Z,47.40
2022-12-14T19:56:56.910Z,39.20
2022-12-14T19:57:57.638Z,41.60
2022-12-14T19:58:58.325Z,38.00
2022-12-14T19:59:59.040Z,37.20
2022-12-14T20:00:59.748Z,33.50
2022-12-14T20:02:00.564Z,40.70
2022-12-14T20:03:01.515Z,40.70
2022-12-14T20:04:01.854Z,39.30
2022-12-14T20:05:02.526Z,39.20
2022-12-14T20:06:03.233Z,40.10
2022-12-14T20:07:03.938Z,39.00
2022-12-14T20:08:04.645Z,37.20
2022-12-14T20:09:05.356Z,38.90
2022-12-14T20:10:06.257Z,35.90
2022-12-14T20:11:06.916Z,40.80
2022-12-14T20:12:07.623Z,39.60
2022-12-14T20:13:08.354Z,43.80
2022-12-14T20:14:09.034Z,39.00
2022-12-14T20:15:10.011Z,38.40
2022-12-14T20:16:10.740Z,43.20
2022-12-14T20:17:11.417Z,39.40
2022-12-14T20:18:12.126Z,43.20
2022-12-14T20:19:12.850Z,39.10
2022-12-14T20:20:14.011Z,46.50
2022-12-14T20:21:20.171Z,42.60
2022-12-14T20:22:15.822Z,33.50
2022-12-14T20:23:15.526Z,39.20
2022-12-14T20:24:16.241Z,35.50
2022-12-14T20:25:16.973Z,41.90
2022-12-14T20:26:17.625Z,43.00
2022-12-14T20:27:18.333Z,42.80
2022-12-14T20:28:19.070Z,39.60
2022-12-14T20:29:19.752Z,42.90
2022-12-14T20:30:20.503Z,40.80
2022-12-14T20:31:21.249Z,32.30
2022-12-14T20:32:21.922Z,38.90
2022-12-14T20:33:28.127Z,44.10
2022-12-14T20:34:24.238Z,37.90
2022-12-14T20:35:24.005Z,43.60
2022-12-14T20:36:24.716Z,38.30
2022-12-14T20:37:25.423Z,38.50
2022-12-14T20:38:26.133Z,39.10
2022-12-14T20:39:26.840Z,33.70
2022-12-14T20:40:27.600Z,32.70
2022-12-14T20:41:28.254Z,35.70
2022-12-14T20:42:28.963Z,40.30
2022-12-14T20:43:30.214Z,35.80
2022-12-14T20:44:30.572Z,38.80
2022-12-14T20:45:31.306Z,37.40
2022-12-14T20:46:32.126Z,37.70
2022-12-14T20:47:32.800Z,36.10
2022-12-14T20:48:33.511Z,37.50
2022-12-14T20:49:34.219Z,41.10
2022-12-14T20:50:34.954Z,39.30
2022-12-14T20:51:35.663Z,39.30
2022-12-14T20:52:36.371Z,37.10
2022-12-14T20:53:37.080Z,45.00
2022-12-14T20:54:37.975Z,43.30
2022-12-14T20:55:38.725Z,54.40
2022-12-14T20:56:39.392Z,48.00
2022-12-14T20:57:40.102Z,50.20
2022-12-14T20:58:40.822Z,48.60
2022-12-14T20:59:41.509Z,51.40
2022-12-14T21:00:42.257Z,49.80
2022-12-14T21:01:43.067Z,42.90
2022-12-14T21:02:44.007Z,52.60
2022-12-14T21:03:44.825Z,49.80
2022-12-14T21:04:45.483Z,49.30
2022-12-14T21:05:46.203Z,54.10
2022-12-14T21:06:46.912Z,41.50
2022-12-14T21:07:47.617Z,47.60
2022-12-14T21:08:48.327Z,47.60
2022-12-14T21:09:48.989Z,48.00
2022-12-14T21:10:49.743Z,51.40
2022-12-14T21:11:50.410Z,47.40
2022-12-14T21:12:51.127Z,49.60
2022-12-14T21:13:51.864Z,49.00
2022-12-14T21:14:52.554Z,51.70
2022-12-14T21:15:53.526Z,51.60
2022-12-14T21:16:54.314Z,53.70
2022-12-14T21:17:54.963Z,50.20
2022-12-14T21:18:55.669Z,58.60
2022-12-14T21:19:56.376Z,56.30
2022-12-14T21:20:57.092Z,60.20
2022-12-14T21:21:57.825Z,70.10
2022-12-14T21:22:58.534Z,61.10
2022-12-14T21:23:59.245Z,71.70
2022-12-14T21:25:03.506Z,56.40
2022-12-14T21:26:02.023Z,63.40
2022-12-14T21:27:01.217Z,64.30
2022-12-14T21:28:01.927Z,50.80
2022-12-14T21:29:02.657Z,49.30
2022-12-14T21:30:03.405Z,46.30
2022-12-14T21:31:04.083Z,52.20
2022-12-14T21:32:04.840Z,41.80
2022-12-14T21:33:05.512Z,46.40
2022-12-14T21:34:06.213Z,48.50
2022-12-14T21:35:06.923Z,49.60
2022-12-14T21:36:08.004Z,53.10
2022-12-14T21:37:08.218Z,44.40
2022-12-14T21:38:08.922Z,45.80
2022-12-14T21:39:09.631Z,47.00
2022-12-14T21:40:10.339Z,51.00
2022-12-14T21:41:11.073Z,48.70
2022-12-14T21:42:11.753Z,44.60
2022-12-14T21:43:12.462Z,53.50
2022-12-14T21:44:13.189Z,53.60
2022-12-14T21:45:13.879Z,53.00
2022-12-14T21:46:14.681Z,49.70
2022-12-14T21:47:15.333Z,51.20
2022-12-14T21:48:16.038Z,50.00
2022-12-14T21:49:16.745Z,53.30
2022-12-14T21:50:17.457Z,56.70
2022-12-14T21:51:18.506Z,55.50
2022-12-14T21:52:18.711Z,59.60
2022-12-14T21:53:19.419Z,50.70
2022-12-14T21:54:20.126Z,57.10
2022-12-14T21:55:20.846Z,51.30
2022-12-14T21:56:22.045Z,55.60
2022-12-14T21:57:22.215Z,56.40
2022-12-14T21:58:22.925Z,47.40
2022-12-14T21:59:23.655Z,53.50
2022-12-14T22:00:24.342Z,52.40
2022-12-14T22:01:25.216Z,53.50
2022-12-14T22:02:26.113Z,47.80
2022-12-14T22:03:27.165Z,55.90
2022-12-14T22:04:27.483Z,55.50
2022-12-14T22:05:28.187Z,61.60
2022-12-14T22:06:29.006Z,60.80
2022-12-14T22:07:29.717Z,53.60
2022-12-14T22:08:30.985Z,63.60
2022-12-14T22:09:31.260Z,57.10
2022-12-14T22:10:31.968Z,54.90
2022-12-14T22:11:32.717Z,63.90
2022-12-14T22:12:33.395Z,64.00
2022-12-14T22:13:34.116Z,64.30
2022-12-14T22:14:34.832Z,60.70
2022-12-14T22:15:35.530Z,62.90
2022-12-14T22:16:36.543Z,65.30
2022-12-14T22:17:37.210Z,58.90
2022-12-14T22:18:38.118Z,62.80
2022-12-14T22:19:38.826Z,67.70
2022-12-14T22:20:39.534Z,62.00
2022-12-14T22:21:40.502Z,63.60
2022-12-14T22:22:41.211Z,61.30
2022-12-14T22:23:43.735Z,59.10
2022-12-14T22:24:42.704Z,60.70
2022-12-14T22:25:43.407Z,58.80
2022-12-14T22:26:44.566Z,56.00
2022-12-14T22:27:49.631Z,59.00
2022-12-14T22:28:46.344Z,58.00
2022-12-14T22:29:46.075Z,60.10
2022-12-14T22:30:46.759Z,65.80
2022-12-14T22:31:47.556Z,55.40
2022-12-14T22:32:48.214Z,62.00
2022-12-14T22:33:49.657Z,60.40
2022-12-14T22:34:49.507Z,60.50
2022-12-14T22:35:50.216Z,57.80
2022-12-14T22:36:51.006Z,57.80
2022-12-14T22:37:51.713Z,58.80
2022-12-14T22:38:52.420Z,57.20
2022-12-14T22:39:53.124Z,60.50
2022-12-14T22:40:53.832Z,61.90
2022-12-14T22:41:55.020Z,66.20
2022-12-14T22:42:55.174Z,61.40
2022-12-14T22:43:55.885Z,64.40
2022-12-14T22:44:56.668Z,62.30
2022-12-14T22:45:57.364Z,60.40
2022-12-14T22:46:58.505Z,65.20
2022-12-14T22:47:58.711Z,66.90
2022-12-14T22:48:59.418Z,62.50
2022-12-14T22:50:00.190Z,61.90
2022-12-14T22:51:00.839Z,65.40
2022-12-14T22:52:02.004Z,64.50
2022-12-14T22:53:02.212Z,70.00
2022-12-14T22:54:02.921Z,67.10
2022-12-14T22:55:03.626Z,65.60
2022-12-14T22:56:04.333Z,74.40
2022-12-14T22:57:05.519Z,69.50
2022-12-14T22:58:05.683Z,69.10
2022-12-14T22:59:06.393Z,76.80
2022-12-14T23:00:07.124Z,76.80
2022-12-14T23:01:07.811Z,75.30
2022-12-14T23:02:09.277Z,72.00
2022-12-14T23:03:09.108Z,67.60
2022-12-14T23:04:09.997Z,70.90
2022-12-14T23:05:10.752Z,69.40
2022-12-14T23:06:11.467Z,74.90
2022-12-14T23:07:12.507Z,73.70
2022-12-14T23:08:12.714Z,82.20
2022-12-14T23:09:13.420Z,73.70
2022-12-14T23:10:14.127Z,90.10
2022-12-14T23:11:14.834Z,77.20
2022-12-14T23:12:21.259Z,79.20
2022-12-14T23:13:17.170Z,82.40
2022-12-14T23:14:16.876Z,74.90
2022-12-14T23:15:17.608Z,77.70
2022-12-14T23:16:18.347Z,78.60
2022-12-14T23:17:19.028Z,73.30
2022-12-14T23:18:19.734Z,75.50
2022-12-14T23:19:20.442Z,77.10
2022-12-14T23:20:21.147Z,76.40
2022-12-14T23:21:21.853Z,76.40
2022-12-14T23:22:22.572Z,71.00
2022-12-14T23:23:23.281Z,71.70
2022-12-14T23:24:23.984Z,69.70
2022-12-14T23:25:24.690Z,70.30
2022-12-14T23:26:25.396Z,77.50
2022-12-14T23:27:26.130Z,72.80
2022-12-14T23:28:26.820Z,78.40
2022-12-14T23:29:27.545Z,79.90
2022-12-14T23:30:28.378Z,84.30
2022-12-14T23:31:29.052Z,72.10
2022-12-14T23:32:30.005Z,78.40
2022-12-14T23:33:31.292Z,69.40
2022-12-14T23:34:31.604Z,78.10
2022-12-14T23:35:32.342Z,78.80
2022-12-14T23:36:33.052Z,73.80
2022-12-14T23:37:34.001Z,74.40
2022-12-14T23:38:34.710Z,82.50
2022-12-14T23:39:35.420Z,77.20
2022-12-14T23:40:36.129Z,76.00
2022-12-14T23:41:36.839Z,73.60
2022-12-14T23:42:38.022Z,79.30
2022-12-14T23:43:38.207Z,77.80
2022-12-14T23:44:38.912Z,84.90
2022-12-14T23:45:39.644Z,74.30
2022-12-14T23:46:40.395Z,76.60
2022-12-14T23:47:41.049Z,82.90